Time;durP1;ratioP1;P1;durP2;ratioP2;P2;SDS_P1;SDS_P2;PMS_P1;PMS_P2;Temp;Humidity;BMP_temperature;BMP_pressure;BME280_temperature;BME280_humidity;BME280_pressure;Samples;Min_cycle;Max_cycle;Signal;HPM_P1;HPM_P2
2023/06/08 00:02:23;;;;;;;10.13;4.43;;;;;;;19.37;79.49;100838.84;5053490;28;20194;-84
2023/06/08 00:04:50;;;;;;;9.60;4.88;;;;;;;19.27;79.42;100839.06;5053783;28;20029;-84
2023/06/08 00:07:16;;;;;;;17.40;4.03;;;;;;;19.33;79.36;100832.91;5052479;28;20087;-84
2023/06/08 00:09:43;;;;;;;7.60;4.82;;;;;;;19.28;79.39;100835.31;5065075;28;20021;-83
2023/06/08 00:12:10;;;;;;;12.13;4.25;;;;;;;19.29;79.72;100839.75;5065250;28;20037;-83
2023/06/08 00:14:36;;;;;;;10.40;4.28;;;;;;;19.29;79.78;100831.56;5054118;28;20531;-84
2023/06/08 00:17:03;;;;;;;7.03;4.25;;;;;;;19.21;80.21;100823.41;5051978;28;20040;-83
2023/06/08 00:19:33;;;;;;;15.93;4.93;;;;;;;19.19;80.34;100830.06;5052470;28;20029;-86
2023/06/08 00:21:59;;;;;;;13.63;4.72;;;;;;;19.18;80.36;100818.28;5052120;28;20115;-85
2023/06/08 00:24:25;;;;;;;8.75;4.85;;;;;;;19.16;80.25;100817.63;5051895;28;20057;-85
2023/06/08 00:26:51;;;;;;;22.65;4.50;;;;;;;19.18;80.20;100821.03;5051687;28;20063;-84
2023/06/08 00:29:16;;;;;;;11.10;4.72;;;;;;;19.20;80.35;100826.31;5051534;28;20060;-85
2023/06/08 00:31:42;;;;;;;13.45;4.78;;;;;;;19.22;80.34;100824.25;5052164;28;20111;-84
2023/06/08 00:34:07;;;;;;;14.30;4.50;;;;;;;19.22;80.39;100819.66;5052162;28;20017;-83
2023/06/08 00:36:33;;;;;;;11.40;4.97;;;;;;;19.19;80.12;100809.09;5051678;28;20473;-86
2023/06/08 00:38:58;;;;;;;8.38;4.20;;;;;;;19.17;79.91;100805.72;5053204;28;20702;-83
2023/06/08 00:41:24;;;;;;;9.50;5.03;;;;;;;19.01;80.52;100794.84;5052264;28;20054;-82
2023/06/08 00:43:49;;;;;;;21.30;5.53;;;;;;;19.04;80.82;100799.94;5054170;28;20033;-83
2023/06/08 00:46:17;;;;;;;17.23;5.95;;;;;;;19.01;80.85;100794.84;5051617;28;20032;-84
2023/06/08 00:48:43;;;;;;;25.58;6.97;;;;;;;19.03;80.85;100803.69;5065692;28;20031;-84
2023/06/08 00:51:09;;;;;;;14.93;8.65;;;;;;;18.95;80.69;100796.41;5065949;28;20029;-84
2023/06/08 00:53:36;;;;;;;18.50;8.50;;;;;;;18.89;80.69;100796.25;5060413;28;20040;-84
2023/06/08 00:56:02;;;;;;;19.85;7.43;;;;;;;18.90;80.36;100803.38;5052147;28;20075;-84
2023/06/08 00:58:29;;;;;;;25.83;8.65;;;;;;;18.91;80.66;100810.53;5052429;28;20096;-83
2023/06/08 01:00:59;;;;;;;26.08;8.23;;;;;;;18.88;80.62;100809.00;5053706;28;20087;-83
2023/06/08 01:03:33;;;;;;;36.28;8.25;;;;;;;18.88;80.66;100805.44;5054230;28;20025;-82
2023/06/08 01:06:08;;;;;;;34.78;9.40;;;;;;;18.86;80.25;100797.44;5064121;28;20037;-83
2023/06/08 01:08:54;;;;;;;20.63;8.15;;;;;;;18.76;80.16;100795.94;5056662;28;20025;-84
2023/06/08 01:11:54;;;;;;;16.25;8.02;;;;;;;18.77;80.49;100803.94;5051152;28;20412;-84
2023/06/08 01:14:28;;;;;;;22.75;7.35;;;;;;;18.76;80.87;100813.13;5050704;28;20020;-85
2023/06/08 01:17:00;;;;;;;22.23;7.53;;;;;;;18.42;80.73;100772.44;5048913;28;20120;-85
2023/06/08 01:19:47;;;;;;;32.33;9.23;;;;;;;18.63;80.97;100812.81;5049767;28;20789;-86
2023/06/08 01:22:27;;;;;;;19.77;8.68;;;;;;;18.57;80.95;100799.00;5050072;28;20524;-85
2023/06/08 01:24:56;;;;;;;21.02;8.63;;;;;;;18.58;81.04;100804.31;5050768;28;20382;-85
2023/06/08 01:27:25;;;;;;;17.05;7.78;;;;;;;18.56;81.53;100794.59;5053668;28;20065;-84
2023/06/08 01:29:51;;;;;;;22.58;8.00;;;;;;;18.55;81.76;100799.19;5059291;28;20028;-85
2023/06/08 01:32:18;;;;;;;25.55;12.38;;;;;;;18.55;82.14;100793.75;5050784;28;20052;-84
2023/06/08 01:34:45;;;;;;;20.30;6.85;;;;;;;18.58;82.27;100798.84;5031425;28;20029;-84
2023/06/08 01:37:19;;;;;;;14.38;6.40;;;;;;;18.68;82.13;100799.53;5050449;28;20025;-84
2023/06/08 01:39:55;;;;;;;15.65;7.05;;;;;;;18.75;82.14;100805.13;5050173;28;20028;-83
2023/06/08 01:42:23;;;;;;;18.67;6.25;;;;;;;18.69;82.52;100794.91;5050444;28;20043;-84
2023/06/08 01:45:12;;;;;;;14.65;5.13;;;;;;;18.82;82.64;100803.41;5050205;28;20025;-84
2023/06/08 01:47:50;;;;;;;16.10;5.32;;;;;;;18.79;82.80;100790.13;5050062;28;20033;-85
2023/06/08 01:50:17;;;;;;;15.68;5.03;;;;;;;18.92;83.50;100806.78;5048692;28;20033;-85
2023/06/08 01:52:43;;;;;;;14.85;4.72;;;;;;;18.96;83.41;100808.13;5050231;28;20710;-84
2023/06/08 01:55:20;;;;;;;12.40;4.57;;;;;;;18.90;83.43;100787.03;5050469;28;20027;-85
2023/06/08 01:57:45;;;;;;;10.85;4.15;;;;;;;18.85;83.32;100783.97;5050993;28;20029;-85
2023/06/08 02:00:16;;;;;;;10.45;4.50;;;;;;;18.94;83.32;100810.19;5051006;28;20025;-84
2023/06/08 02:02:42;;;;;;;7.68;4.57;;;;;;;18.91;83.57;100805.09;5063140;28;20049;-84
2023/06/08 02:05:10;;;;;;;18.08;4.78;;;;;;;18.73;83.37;100774.47;5065304;28;20033;-85
2023/06/08 02:07:36;;;;;;;9.35;3.92;;;;;;;18.87;83.05;100798.28;5050875;28;20466;-85
2023/06/08 02:10:04;;;;;;;12.13;4.05;;;;;;;18.86;82.68;100788.41;5049686;28;20029;-86
2023/06/08 02:12:29;;;;;;;12.73;4.68;;;;;;;18.91;82.15;100796.91;5050034;28;20032;-83
2023/06/08 02:14:54;;;;;;;12.23;4.45;;;;;;;18.89;81.76;100790.78;5049899;28;20574;-85
2023/06/08 02:17:27;;;;;;;15.88;4.45;;;;;;;18.79;81.53;100781.94;5049942;28;20029;-84
2023/06/08 02:19:56;;;;;;;10.75;4.53;;;;;;;18.79;81.70;100793.72;5050035;28;20029;-85
2023/06/08 02:22:22;;;;;;;11.48;4.95;;;;;;;18.67;81.50;100775.16;5049564;28;20500;-83
2023/06/08 02:24:49;;;;;;;10.15;5.28;;;;;;;18.76;81.32;100790.47;5049174;28;20021;-85
2023/06/08 02:27:15;;;;;;;9.45;3.78;;;;;;;18.68;81.53;100782.31;5049974;28;20029;-83
2023/06/08 02:29:41;;;;;;;19.25;5.35;;;;;;;18.70;81.56;100797.47;5049900;28;20099;-85
2023/06/08 02:32:07;;;;;;;12.90;3.95;;;;;;;18.69;81.64;100787.59;5050044;28;20037;-85
2023/06/08 02:34:33;;;;;;;11.20;4.28;;;;;;;18.72;81.80;100797.28;5049555;28;20021;-85
2023/06/08 02:36:58;;;;;;;10.25;4.38;;;;;;;18.65;81.71;100777.22;5049886;28;20040;-83
2023/06/08 02:39:26;;;;;;;33.83;8.45;;;;;;;18.77;81.80;100800.38;5049571;28;20488;-86
2023/06/08 02:41:51;;;;;;;20.88;4.97;;;;;;;18.74;81.19;100787.94;5049683;28;20033;-84
2023/06/08 02:44:16;;;;;;;15.25;4.47;;;;;;;18.84;81.30;100790.44;5049724;28;20021;-84
2023/06/08 02:46:42;;;;;;;13.27;5.10;;;;;;;18.81;81.30;100796.25;5049676;28;20025;-85
2023/06/08 02:49:07;;;;;;;7.75;5.07;;;;;;;18.82;81.31;100797.97;5053725;28;20182;-85
2023/06/08 02:51:35;;;;;;;13.30;4.95;;;;;;;18.87;80.99;100801.84;5054517;28;20079;-84
2023/06/08 02:54:01;;;;;;;13.43;5.75;;;;;;;18.87;81.01;100803.72;5055069;28;20051;-84
2023/06/08 02:56:27;;;;;;;10.07;4.03;;;;;;;18.90;81.07;100809.69;5053776;28;20029;-85
2023/06/08 02:58:53;;;;;;;15.13;4.72;;;;;;;18.98;80.70;100806.09;5061629;28;20032;-83
2023/06/08 03:01:20;;;;;;;13.73;4.90;;;;;;;19.02;80.64;100816.47;5062640;28;20052;-83
2023/06/08 03:03:48;;;;;;;16.17;4.70;;;;;;;19.06;80.13;100808.78;5058677;28;20063;-87
2023/06/08 03:06:17;;;;;;;11.15;4.18;;;;;;;19.12;79.93;100813.53;5068756;28;20025;-83
2023/06/08 03:08:46;;;;;;;16.35;5.57;;;;;;;19.04;79.78;100799.94;5052987;28;20124;-85
2023/06/08 03:11:13;;;;;;;19.75;4.68;;;;;;;19.11;79.60;100805.56;5053412;28;20098;-86
2023/06/08 03:13:38;;;;;;;25.65;4.63;;;;;;;19.19;79.72;100828.19;5052488;28;20079;-82
2023/06/08 03:16:04;;;;;;;13.38;4.68;;;;;;;19.26;79.65;100814.69;5053583;28;20112;-84
2023/06/08 03:18:29;;;;;;;16.08;4.45;;;;;;;19.24;79.24;100812.13;5052989;28;20100;-84
2023/06/08 03:20:55;;;;;;;16.30;4.80;;;;;;;19.19;79.79;100810.97;5053398;28;20040;-82
2023/06/08 03:23:21;;;;;;;9.35;3.67;;;;;;;19.21;79.88;100817.94;5052550;28;20036;-83
2023/06/08 03:25:50;;;;;;;21.52;5.28;;;;;;;19.32;79.72;100823.03;5051333;28;20075;-84
2023/06/08 03:28:17;;;;;;;27.50;8.45;;;;;;;19.35;78.96;100810.91;5054960;28;20025;-85
2023/06/08 03:30:43;;;;;;;63.65;18.30;;;;;;;19.31;78.71;100807.69;5054545;28;20033;-84
2023/06/08 03:33:10;;;;;;;47.67;14.82;;;;;;;19.30;78.96;100805.13;5058322;28;20086;-82
2023/06/08 03:35:35;;;;;;;19.33;5.32;;;;;;;19.32;78.75;100809.41;5054007;28;20157;-85
2023/06/08 03:38:01;;;;;;;19.10;5.05;;;;;;;19.15;78.70;100805.00;5055639;28;20037;-84
2023/06/08 03:40:26;;;;;;;16.40;4.38;;;;;;;19.18;79.20;100801.94;5052310;28;20056;-87
2023/06/08 03:42:52;;;;;;;21.15;8.57;;;;;;;19.24;78.98;100801.22;5052220;28;20017;-85
2023/06/08 03:45:17;;;;;;;23.80;6.82;;;;;;;19.28;78.77;100794.41;5052854;28;20033;-84
2023/06/08 03:47:43;;;;;;;22.58;4.97;;;;;;;19.36;78.85;100818.91;5051536;28;20035;-82
2023/06/08 03:50:11;;;;;;;19.38;4.78;;;;;;;19.39;78.42;100810.41;5053946;28;20035;-84
2023/06/08 03:52:38;;;;;;;34.80;5.07;;;;;;;19.51;78.40;100829.94;5056710;28;20025;-86
2023/06/08 03:55:05;;;;;;;12.65;3.60;;;;;;;19.47;78.24;100815.84;5064705;28;20021;-84
2023/06/08 03:57:31;;;;;;;20.45;4.97;;;;;;;19.54;77.59;100816.81;5071160;28;20028;-86
2023/06/08 03:59:56;;;;;;;11.18;4.38;;;;;;;19.52;76.99;100818.88;5057622;28;20025;-87
2023/06/08 04:02:22;;;;;;;16.00;5.53;;;;;;;19.62;76.56;100821.38;5054154;28;20106;-92
2023/06/08 04:04:47;;;;;;;17.45;4.28;;;;;;;19.65;76.28;100809.25;5056477;28;20033;-90
2023/06/08 04:07:13;;;;;;;16.58;5.50;;;;;;;19.63;76.26;100797.69;5053260;28;20128;-83
2023/06/08 04:09:38;;;;;;;14.48;4.30;;;;;;;19.77;75.44;100816.00;5052183;28;20025;-83
2023/06/08 04:12:05;;;;;;;18.42;4.68;;;;;;;19.75;74.69;100801.72;5052094;28;20029;-83
2023/06/08 04:14:31;;;;;;;20.98;5.47;;;;;;;19.91;74.55;100826.16;5052061;28;20548;-86
2023/06/08 04:16:56;;;;;;;20.00;4.63;;;;;;;19.88;73.87;100815.59;5052832;28;20044;-85
2023/06/08 04:19:22;;;;;;;25.83;5.43;;;;;;;19.90;73.69;100816.28;5052680;28;20029;-84
2023/06/08 04:21:48;;;;;;;18.45;5.55;;;;;;;19.97;73.31;100814.50;5052582;28;20024;-85
2023/06/08 04:24:13;;;;;;;31.33;5.00;;;;;;;20.02;71.48;100798.44;5053216;28;20079;-83
2023/06/08 04:26:40;;;;;;;17.08;3.75;;;;;;;20.11;71.18;100811.00;5052884;28;20029;-88
2023/06/08 04:29:06;;;;;;;13.43;4.25;;;;;;;20.20;70.75;100814.53;5050393;28;20078;-85
2023/06/08 04:31:31;;;;;;;7.15;4.03;;;;;;;20.25;70.11;100804.75;5054492;28;20025;-86
2023/06/08 04:33:57;;;;;;;33.90;5.72;;;;;;;20.34;69.58;100803.69;5053174;28;20025;-82
2023/06/08 04:36:23;;;;;;;32.25;6.28;;;;;;;20.32;68.36;100794.81;5053832;28;20025;-84
2023/06/08 04:38:48;;;;;;;16.45;3.92;;;;;;;20.64;67.79;100829.19;5053095;28;20035;-85
2023/06/08 04:41:14;;;;;;;42.38;7.63;;;;;;;20.56;67.14;100811.00;5053752;28;20033;-84
2023/06/08 04:43:44;;;;;;;22.20;4.70;;;;;;;20.56;65.73;100793.75;5053229;28;20029;-88
2023/06/08 04:46:10;;;;;;;26.30;5.35;;;;;;;20.54;65.24;100801.28;5054728;28;20097;-87
2023/06/08 04:48:37;;;;;;;20.88;4.03;;;;;;;20.76;65.58;100821.41;5050725;28;20139;-81
2023/06/08 04:51:09;;;;;;;36.95;4.90;;;;;;;20.86;65.22;100820.09;5051895;28;20114;-81
2023/06/08 04:53:35;;;;;;;51.45;8.45;;;;;;;20.90;63.91;100817.84;5055909;28;20109;-81
2023/06/08 04:56:02;;;;;;;7.90;3.97;;;;;;;20.94;63.54;100822.78;5053416;28;20036;-84
2023/06/08 04:58:32;;;;;;;13.32;3.75;;;;;;;21.03;62.92;100829.00;5050361;28;20025;-82
2023/06/08 05:00:58;;;;;;;17.63;4.50;;;;;;;21.08;62.54;100826.53;5051220;28;20189;-80
2023/06/08 05:03:24;;;;;;;29.00;6.97;;;;;;;21.24;62.75;100826.38;5050833;28;20021;-82
2023/06/08 05:05:50;;;;;;;20.08;4.30;;;;;;;21.16;61.33;100821.00;5050954;28;20501;-89
2023/06/08 05:08:16;;;;;;;30.13;5.00;;;;;;;21.22;59.70;100823.00;5050813;28;20048;-84
2023/06/08 05:10:41;;;;;;;10.10;4.45;;;;;;;21.39;59.40;100834.59;5050729;28;20036;-84
2023/06/08 05:13:07;;;;;;;30.65;4.68;;;;;;;21.26;58.63;100832.50;5050239;28;20033;-82
2023/06/08 05:15:32;;;;;;;25.52;8.95;;;;;;;21.32;58.99;100834.50;5050346;28;20076;-80
2023/06/08 05:17:59;;;;;;;36.90;4.20;;;;;;;21.38;58.21;100817.31;5051631;28;20017;-85
2023/06/08 05:20:25;;;;;;;15.27;3.78;;;;;;;21.64;57.00;100831.34;5054889;28;20033;-86
2023/06/08 05:22:52;;;;;;;34.83;4.47;;;;;;;21.54;56.90;100822.59;5070897;28;20097;-82
2023/06/08 05:25:18;;;;;;;14.65;2.97;;;;;;;21.67;56.10;100836.44;5086637;28;20029;-86
2023/06/08 05:27:44;;;;;;;26.35;4.72;;;;;;;21.75;55.48;100842.84;5066401;28;20017;-86
2023/06/08 05:30:11;;;;;;;17.73;4.10;;;;;;;21.86;54.31;100826.78;5058187;28;20045;-88
2023/06/08 05:32:36;;;;;;;6.93;3.40;;;;;;;21.83;52.67;100843.59;5058342;28;20540;-88
2023/06/08 05:35:03;;;;;;;29.05;4.57;;;;;;;21.70;52.50;100808.69;5055897;28;20063;-86
2023/06/08 05:37:28;;;;;;;15.48;3.47;;;;;;;21.95;52.39;100846.72;5052793;28;20075;-87
2023/06/08 05:39:54;;;;;;;16.38;4.50;;;;;;;21.84;51.89;100828.84;5052600;28;20037;-86
2023/06/08 05:42:20;;;;;;;8.30;3.67;;;;;;;21.92;52.04;100837.00;5055897;28;20029;-89
2023/06/08 05:44:46;;;;;;;14.82;3.80;;;;;;;21.88;52.69;100829.31;5071624;28;20037;-87
2023/06/08 05:47:11;;;;;;;37.45;5.53;;;;;;;21.86;52.57;100832.25;5060374;28;20039;-88
2023/06/08 05:49:37;;;;;;;12.60;3.33;;;;;;;21.99;51.73;100842.53;5073609;28;20036;-89
2023/06/08 05:52:02;;;;;;;36.47;4.53;;;;;;;22.03;51.44;100821.94;5056767;28;20136;-85
2023/06/08 05:54:28;;;;;;;19.38;4.10;;;;;;;22.08;51.95;100816.69;5048429;28;20386;-83
2023/06/08 05:56:53;;;;;;;12.85;3.88;;;;;;;22.23;52.87;100839.44;5050504;28;20032;-83
2023/06/08 05:59:19;;;;;;;12.02;3.50;;;;;;;22.34;52.32;100838.91;5034837;28;20121;-83
2023/06/08 06:01:45;;;;;;;41.03;5.28;;;;;;;22.33;52.08;100831.72;5050717;28;20416;-81
2023/06/08 06:04:11;;;;;;;20.10;4.28;;;;;;;22.35;51.56;100815.09;5049151;28;20075;-88
2023/06/08 06:06:36;;;;;;;11.60;4.28;;;;;;;22.54;51.99;100831.69;5049172;28;20865;-81
2023/06/08 06:09:03;;;;;;;30.55;5.68;;;;;;;22.61;51.03;100838.09;5049004;28;20025;-83
2023/06/08 06:11:29;;;;;;;19.15;4.47;;;;;;;22.69;51.15;100831.66;5049429;28;20032;-83
2023/06/08 06:13:57;;;;;;;12.55;2.85;;;;;;;22.57;49.87;100812.13;5049278;28;20021;-84
2023/06/08 06:16:23;;;;;;;24.63;4.05;;;;;;;22.64;49.74;100820.41;5048794;28;20036;-85
2023/06/08 06:18:49;;;;;;;12.75;3.38;;;;;;;22.88;48.22;100827.38;5053540;28;20401;-83
2023/06/08 06:21:14;;;;;;;34.45;5.50;;;;;;;22.96;47.99;100838.22;5054902;28;20424;-83
2023/06/08 06:23:40;;;;;;;16.20;4.07;;;;;;;22.92;47.67;100813.06;5068181;28;20021;-84
2023/06/08 06:26:05;;;;;;;11.00;5.00;;;;;;;23.07;46.61;100824.78;5060886;28;20043;-86
2023/06/08 06:28:31;;;;;;;12.05;4.30;;;;;;;22.94;43.47;100821.94;5054698;28;20688;-85
2023/06/08 06:30:57;;;;;;;13.88;3.70;;;;;;;23.00;43.87;100825.75;5056054;28;20091;-84
2023/06/08 06:33:22;;;;;;;30.40;6.38;;;;;;;22.99;42.28;100835.06;5047524;28;20025;-88
2023/06/08 06:35:48;;;;;;;39.20;6.00;;;;;;;22.94;43.90;100827.41;5084267;28;20033;-83
2023/06/08 06:38:13;;;;;;;10.07;3.83;;;;;;;23.05;42.91;100834.25;5054542;28;20036;-83
2023/06/08 06:40:39;;;;;;;22.50;4.60;;;;;;;22.93;43.54;100823.00;5052472;28;20029;-84
2023/06/08 06:43:05;;;;;;;14.90;3.22;;;;;;;22.92;44.48;100817.69;5053329;28;20025;-84
2023/06/08 06:45:30;;;;;;;9.10;4.00;;;;;;;22.90;45.74;100819.81;5065005;28;20060;-84
2023/06/08 06:47:56;;;;;;;7.13;2.53;;;;;;;22.98;46.50;100825.97;5063848;28;20071;-85
2023/06/08 06:50:21;;;;;;;21.55;4.28;;;;;;;22.94;44.34;100818.34;5051885;28;20055;-78
2023/06/08 06:52:46;;;;;;;18.30;4.40;;;;;;;23.13;46.23;100823.13;5051902;28;20083;-82
2023/06/08 06:55:12;;;;;;;21.70;5.25;;;;;;;23.23;46.17;100834.59;5051611;28;20083;-78
2023/06/08 06:57:37;;;;;;;22.08;3.90;;;;;;;23.19;47.31;100819.56;5052588;28;20033;-85
2023/06/08 07:00:09;;;;;;;13.88;4.30;;;;;;;23.18;47.42;100812.38;5051699;28;20025;-84
2023/06/08 07:02:37;;;;;;;;;;;;;;;23.30;47.79;100830.00;5053162;28;20098;-91
2023/06/08 07:05:04;;;;;;;9.57;3.50;;;;;;;23.27;48.45;100828.47;5052044;28;19920;-83
2023/06/08 07:07:30;;;;;;;20.67;3.95;;;;;;;23.28;48.18;100824.69;5050159;28;20033;-83
2023/06/08 07:09:55;;;;;;;8.20;3.28;;;;;;;23.29;47.31;100825.53;5050304;28;20102;-81
2023/06/08 07:12:21;;;;;;;24.38;5.25;;;;;;;23.46;47.22;100824.19;5052254;28;20076;-80
2023/06/08 07:14:46;;;;;;;53.38;6.15;;;;;;;23.66;46.69;100832.53;5051289;28;20055;-80
2023/06/08 07:17:12;;;;;;;14.85;3.67;;;;;;;23.79;46.71;100827.09;5050886;28;20037;-81
2023/06/08 07:19:39;;;;;;;17.20;3.90;;;;;;;23.77;46.51;100830.03;5051190;28;20029;-80
2023/06/08 07:22:05;;;;;;;15.70;3.63;;;;;;;23.65;47.59;100823.44;5050817;28;20397;-81
2023/06/08 07:24:31;;;;;;;21.20;4.88;;;;;;;23.82;46.87;100840.41;5051287;28;20516;-82
2023/06/08 07:26:56;;;;;;;11.95;3.38;;;;;;;23.77;44.83;100841.00;5065922;28;20112;-80
2023/06/08 07:29:22;;;;;;;19.40;3.90;;;;;;;23.65;44.74;100826.19;5049617;28;20048;-80
2023/06/08 07:31:47;;;;;;;21.30;4.07;;;;;;;23.69;44.97;100827.47;5051168;28;20094;-82
2023/06/08 07:34:13;;;;;;;10.32;3.42;;;;;;;23.58;44.54;100836.28;5051078;28;20473;-80
2023/06/08 07:36:38;;;;;;;11.27;2.90;;;;;;;23.76;44.04;100844.81;5051538;28;20104;-80
2023/06/08 07:39:04;;;;;;;9.00;3.70;;;;;;;23.90;44.00;100844.88;5051297;28;20047;-79
2023/06/08 07:41:30;;;;;;;5.57;2.92;;;;;;;23.92;43.98;100838.09;5068561;28;20028;-79
2023/06/08 07:43:56;;;;;;;17.13;2.85;;;;;;;23.99;43.86;100852.72;5052543;28;20094;-81
2023/06/08 07:46:22;;;;;;;5.68;2.90;;;;;;;24.09;42.73;100849.59;5051449;28;20428;-81
2023/06/08 07:48:48;;;;;;;22.33;4.05;;;;;;;24.15;42.59;100854.28;5050564;28;20374;-81
2023/06/08 07:51:14;;;;;;;7.93;3.15;;;;;;;24.10;42.84;100845.75;5050029;28;20028;-81
2023/06/08 07:53:40;;;;;;;13.50;3.95;;;;;;;24.18;43.11;100837.38;5051024;28;20086;-82
2023/06/08 07:56:06;;;;;;;20.75;3.35;;;;;;;24.30;42.97;100850.31;5050980;28;20456;-80
2023/06/08 07:58:32;;;;;;;13.50;3.33;;;;;;;24.33;41.94;100851.78;5051649;28;20033;-81
2023/06/08 08:00:59;;;;;;;9.98;3.33;;;;;;;24.41;42.18;100854.31;5051024;28;20107;-81
2023/06/08 08:03:25;;;;;;;10.10;3.60;;;;;;;24.56;42.66;100843.97;5051826;28;20025;-80
2023/06/08 08:05:51;;;;;;;13.30;3.67;;;;;;;24.59;42.37;100851.81;5051540;28;20033;-80
2023/06/08 08:08:17;;;;;;;44.75;7.38;;;;;;;24.67;41.35;100840.59;5051452;28;20029;-80
2023/06/08 08:10:43;;;;;;;29.90;4.32;;;;;;;24.76;41.12;100847.59;5051713;28;20059;-81
2023/06/08 08:13:09;;;;;;;11.98;3.80;;;;;;;24.68;41.36;100844.19;5051287;28;20056;-80
2023/06/08 08:15:35;;;;;;;15.20;3.10;;;;;;;24.74;41.65;100843.34;5050995;28;20029;-81
2023/06/08 08:18:01;;;;;;;8.27;3.05;;;;;;;24.74;42.08;100843.34;5051070;28;20024;-80
2023/06/08 08:20:26;;;;;;;51.53;4.43;;;;;;;24.84;40.97;100839.16;5051463;28;20090;-81
2023/06/08 08:22:52;;;;;;;22.02;3.35;;;;;;;24.75;40.39;100836.78;5051705;28;20519;-81
2023/06/08 08:25:17;;;;;;;9.80;2.90;;;;;;;24.68;40.87;100847.78;5051639;28;20025;-79
2023/06/08 08:27:43;;;;;;;12.43;4.13;;;;;;;24.74;40.97;100844.19;5057765;28;20021;-79
2023/06/08 08:30:08;;;;;;;13.40;3.70;;;;;;;24.66;40.58;100844.41;5053320;28;20036;-79
2023/06/08 08:32:34;;;;;;;10.32;3.03;;;;;;;24.72;41.86;100840.81;5051965;28;20021;-80
2023/06/08 08:35:00;;;;;;;10.43;3.38;;;;;;;24.70;41.15;100837.44;5051518;28;20158;-80
2023/06/08 08:37:26;;;;;;;11.27;2.97;;;;;;;24.82;40.70;100829.41;5052357;28;20033;-80
2023/06/08 08:39:51;;;;;;;13.23;3.20;;;;;;;24.79;41.31;100830.66;5054340;28;20408;-81
2023/06/08 08:42:26;;;;;;;17.88;3.53;;;;;;;24.87;40.97;100832.38;5054035;28;20017;-81
2023/06/08 08:44:56;;;;;;;27.35;3.88;;;;;;;24.85;41.08;100823.50;5047693;28;20129;-81
2023/06/08 08:47:28;;;;;;;8.15;5.07;;;;;;;24.80;40.83;100826.81;5051077;28;20056;-81
2023/06/08 08:50:03;;;;;;;12.30;3.10;;;;;;;24.78;41.15;100817.94;5053935;28;20044;-79
2023/06/08 08:52:33;;;;;;;12.35;3.70;;;;;;;24.85;41.95;100812.47;5058154;28;20023;-82
2023/06/08 08:55:00;;;;;;;15.82;4.00;;;;;;;24.87;42.41;100822.22;5051152;28;20029;-82
2023/06/08 08:57:30;;;;;;;11.63;3.67;;;;;;;24.68;42.19;100817.53;5051378;28;20033;-80
2023/06/08 08:59:56;;;;;;;6.55;2.60;;;;;;;24.78;41.97;100828.97;5050656;28;20108;-81
2023/06/08 09:02:22;;;;;;;18.25;3.13;;;;;;;24.69;42.58;100819.22;5051312;28;20048;-79
2023/06/08 09:04:47;;;;;;;27.23;3.95;;;;;;;24.76;42.97;100828.34;5050504;28;20113;-81
2023/06/08 09:07:18;;;;;;;178.00;23.17;;;;;;;24.84;43.61;100819.03;5050916;28;20037;-80
2023/06/08 09:10:15;;;;;;;41.95;4.93;;;;;;;24.74;42.85;100822.19;5049858;28;20025;-80
2023/06/08 09:12:42;;;;;;;29.75;3.22;;;;;;;24.73;42.21;100806.75;5050513;28;20076;-81
2023/06/08 09:15:13;;;;;;;19.73;3.78;;;;;;;24.84;42.51;100811.63;5050035;28;20083;-82
2023/06/08 09:17:40;;;;;;;21.05;3.75;;;;;;;25.00;43.78;100824.09;5050210;28;20028;-80
2023/06/08 09:20:08;;;;;;;21.17;4.70;;;;;;;24.80;42.10;100824.06;5050403;28;20108;-81
2023/06/08 09:22:35;;;;;;;19.73;3.78;;;;;;;24.90;42.54;100821.78;5050420;28;20067;-80
2023/06/08 09:25:02;;;;;;;13.43;4.53;;;;;;;24.88;42.92;100823.91;5050532;28;20034;-80
2023/06/08 09:27:28;;;;;;;10.63;3.30;;;;;;;25.05;43.02;100831.69;5051332;28;20024;-80
2023/06/08 09:29:54;;;;;;;14.80;4.15;;;;;;;25.11;42.95;100812.44;5050991;28;20491;-80
2023/06/08 09:32:25;;;;;;;43.47;7.40;;;;;;;25.20;42.83;100816.63;5050927;28;20025;-79
2023/06/08 09:35:03;;;;;;;7.30;3.47;;;;;;;25.18;42.13;100827.03;5054345;28;20025;-81
2023/06/08 09:37:29;;;;;;;15.57;3.08;;;;;;;25.26;42.54;100817.69;5055586;28;20029;-80
2023/06/08 09:39:55;;;;;;;12.55;3.33;;;;;;;25.30;42.24;100810.69;5051191;28;20029;-81
2023/06/08 09:42:21;;;;;;;28.92;5.32;;;;;;;25.42;42.81;100804.28;5049168;28;20412;-81
2023/06/08 09:44:47;;;;;;;16.40;4.90;;;;;;;25.40;42.17;100800.94;5049867;28;20021;-80
2023/06/08 09:47:25;;;;;;;10.30;3.78;;;;;;;25.49;42.74;100809.81;5050365;28;20037;-81
2023/06/08 09:49:51;;;;;;;10.70;2.53;;;;;;;25.39;43.18;100787.34;5055076;28;20025;-85
2023/06/08 09:52:21;;;;;;;10.07;3.55;;;;;;;25.44;43.24;100802.16;5053318;28;20055;-80
2023/06/08 09:54:48;;;;;;;16.08;3.35;;;;;;;25.56;43.66;100807.91;5058166;28;20417;-78
2023/06/08 09:57:20;;;;;;;41.92;4.70;;;;;;;25.68;42.45;100808.91;5058431;28;20064;-78
2023/06/08 10:00:14;;;;;;;15.82;3.85;;;;;;;25.73;42.21;100800.81;5063720;28;20129;-84
2023/06/08 10:03:08;;;;;;;18.33;4.00;;;;;;;25.73;43.02;100799.97;5029150;28;20038;-84
2023/06/08 10:05:38;;;;;;;12.13;3.38;;;;;;;25.40;43.31;100789.91;5021428;28;20030;-85
2023/06/08 10:08:07;;;;;;;13.63;2.92;;;;;;;25.51;43.16;100788.41;5013497;28;20041;-83
2023/06/08 10:10:35;;;;;;;8.65;2.72;;;;;;;25.63;43.59;100792.16;5014381;28;20119;-82
2023/06/08 10:13:01;;;;;;;8.85;3.28;;;;;;;25.74;43.27;100780.47;5013396;28;20565;-78
2023/06/08 10:15:30;;;;;;;8.85;3.50;;;;;;;25.67;42.26;100760.38;5013480;28;20104;-83
2023/06/08 10:17:58;;;;;;;21.05;3.42;;;;;;;25.86;42.04;100789.72;5012089;28;20112;-85
2023/06/08 10:20:25;;;;;;;12.77;3.53;;;;;;;26.02;41.43;100779.25;5011629;28;20034;-83
2023/06/08 10:22:51;;;;;;;14.98;3.42;;;;;;;25.91;42.07;100772.50;5012251;28;20112;-83
2023/06/08 10:25:18;;;;;;;19.05;3.25;;;;;;;25.86;41.72;100766.84;4994504;28;20031;-83
2023/06/08 10:27:48;;;;;;;7.05;3.40;;;;;;;26.07;40.89;100773.91;4994251;28;20042;-86
2023/06/08 10:30:27;;;;;;;6.30;3.08;;;;;;;26.10;40.59;100774.31;4995689;28;20033;-84
2023/06/08 10:32:55;;;;;;;10.98;3.42;;;;;;;26.09;40.63;100760.72;5010096;28;20042;-88
2023/06/08 10:35:20;;;;;;;15.18;3.38;;;;;;;26.10;41.23;100746.75;5025825;28;20037;-88
2023/06/08 10:37:46;;;;;;;13.27;4.35;;;;;;;26.29;41.18;100759.56;5011512;28;20045;-85
2023/06/08 10:40:12;;;;;;;29.88;4.38;;;;;;;26.21;40.58;100756.22;5037355;28;20029;-86
2023/06/08 10:42:51;;;;;;;16.58;3.25;;;;;;;26.16;40.66;100722.97;5052384;28;20532;-89
2023/06/08 10:45:28;;;;;;;13.80;3.90;;;;;;;26.17;41.30;100741.22;5065938;28;20029;-85
2023/06/08 10:48:01;;;;;;;29.70;4.18;;;;;;;25.98;41.60;100727.31;5053630;28;20029;-85
2023/06/08 10:50:30;;;;;;;27.83;3.95;;;;;;;26.03;41.50;100742.31;5054947;28;20048;-85
2023/06/08 10:52:58;;;;;;;9.10;3.70;;;;;;;26.06;41.86;100744.63;5055403;28;20021;-85
2023/06/08 10:55:25;;;;;;;16.73;3.88;;;;;;;26.03;41.93;100734.06;5064913;28;20024;-84
2023/06/08 10:57:53;;;;;;;8.43;3.90;;;;;;;25.98;42.61;100718.19;5056688;28;20044;-86
2023/06/08 11:00:29;;;;;;;46.33;4.82;;;;;;;26.22;42.09;100744.97;5053365;28;20024;-84
2023/06/08 11:03:04;;;;;;;9.43;3.00;;;;;;;26.20;42.30;100736.09;5053270;28;20044;-85
2023/06/08 11:05:37;;;;;;;10.95;3.08;;;;;;;26.37;42.10;100751.00;5053507;28;20135;-85
2023/06/08 11:08:04;;;;;;;14.48;3.78;;;;;;;26.48;41.74;100743.94;5052364;28;20033;-85
2023/06/08 11:10:33;;;;;;;23.95;3.63;;;;;;;26.52;41.11;100726.69;5053833;28;20032;-85
2023/06/08 11:13:08;;;;;;;27.20;3.88;;;;;;;26.66;40.54;100734.84;5054899;28;20029;-85
2023/06/08 11:15:35;;;;;;;7.32;3.10;;;;;;;26.66;41.41;100713.63;5055530;28;20051;-83
2023/06/08 11:18:02;;;;;;;8.65;2.78;;;;;;;26.80;40.86;100731.75;5056845;28;20059;-82
2023/06/08 11:20:28;;;;;;;5.03;3.03;;;;;;;26.70;41.15;100725.03;5058330;28;20029;-82
2023/06/08 11:22:54;;;;;;;14.60;3.85;;;;;;;26.75;41.25;100728.81;5054228;28;20025;-79